Briefing drone pour Noyers-sur-cher

Rechercher une autre localisation

Conditions de vol :


Nous sommes le : Mercredi 19 janvier 2022
Il est 04:12 UTC (05:12 LT)

Lever de soleil : 07:07 UTC (08:07 LT)
Coucher de soleil : 17:02 UTC (18:02 LT)

Météo

L'essentiel des conditions de vol

VIGILANCE MÉTÉO FRANCE - Loir-et-Cher (41)
Pas de vigilances particulieres
CARTE TEMSI
CARTES DES FRONTS
METAR de LFYR
LFYR 190400Z AUTO 21008KT 9999 FEW010 OVC019 03/02 Q1030

Date d'émission: 19/01/2022
Heure d'émission: 04:00 UTC
Vent: 210° pour 8 KT (15 km/h)
Visibilité horizontale: > 10 km
Plafond :
- Peu de nuages à 1000ft (305m)
- Couvert à 1900ft (579m)
Température: 3 °C
Point de rosée: 2 °C
Humidité: 93%
Pression (QNH): 1030 hPa
TAF de LFYR
AMD LFYR 181603Z 1816/1915 CNL

Conditions prévues :

Heure d'émission : Bulletin éffectué le 18 à 16:00 UTC
Prévision : Valide du 18 a 16:00 UTC au 19 a 15:00 UTC
Nuages : à 0ft (0 m)
WEBCAM POUR NOYERS-SUR-CHER

Réglementation

Voler en sécurité

CARTES AERONAUTIQUE 1/500.000
CARTES VAC (LFYR)
SUP AIP




Chargement des AIP...
NOTAM (NOYERS-SUR-CHER + Terrain à proximité / FIR )




Chargement des NOTAMS...
CONTACT PREFECTURE 41
Loir-et-Cher (41) : pref-bpas@loir-et-cher.gouv.fr


Avertissement : Les données mises à disposition sont indicatives. Oxygène Drone ne pourra être tenu responsable de dégâts causés aux biens et aux personnes.